Time;durP1;ratioP1;P1;durP2;ratioP2;P2;SDS_P1;SDS_P2;PMS_P1;PMS_P2;Temp;Humidity;BMP_temperature;BMP_pressure;BME280_temperature;BME280_humidity;BME280_pressure;Samples;Min_cycle;Max_cycle;Signal;HPM_P1;HPM_P2
2023/09/19 00:01:33;;;;;;;5.18;1.92;;;;;;;14.25;88.38;100750.06;6064404;19;20026;-74
2023/09/19 00:03:42;;;;;;;6.05;1.75;;;;;;;14.28;85.50;100747.22;6065717;19;20007;-73
2023/09/19 00:05:50;;;;;;;3.50;1.58;;;;;;;14.28;86.26;100747.22;6069072;19;20022;-72
2023/09/19 00:07:58;;;;;;;6.63;1.85;;;;;;;14.37;85.49;100740.56;6066335;19;20014;-73
2023/09/19 00:10:03;;;;;;;6.32;2.05;;;;;;;14.44;84.89;100745.41;6066006;19;20195;-73
2023/09/19 00:12:09;;;;;;;5.95;2.20;;;;;;;14.47;84.48;100753.16;6070327;19;20434;-74
2023/09/19 00:14:17;;;;;;;5.72;1.95;;;;;;;14.45;84.15;100755.03;6068446;19;20523;-73
2023/09/19 00:16:23;;;;;;;6.18;2.15;;;;;;;14.37;85.27;100756.41;6066656;19;20630;-72
2023/09/19 00:18:32;;;;;;;3.45;1.80;;;;;;;14.36;84.45;100750.28;6070469;19;20011;-73
2023/09/19 00:20:41;;;;;;;5.95;2.03;;;;;;;14.31;85.95;100757.63;6073858;19;20025;-73
2023/09/19 00:22:47;;;;;;;6.70;1.75;;;;;;;14.28;86.00;100758.66;6074879;19;20110;-73
2023/09/19 00:24:52;;;;;;;8.73;2.00;;;;;;;14.26;85.22;100759.69;6076598;19;20040;-73
2023/09/19 00:27:05;;;;;;;7.38;2.13;;;;;;;14.26;86.07;100754.38;6072716;19;20093;-72
2023/09/19 00:29:10;;;;;;;9.90;2.63;;;;;;;14.20;86.51;100760.03;6075948;19;20011;-72
2023/09/19 00:31:19;;;;;;;11.13;2.33;;;;;;;14.15;86.89;100760.28;6074098;19;20828;-72
2023/09/19 00:33:25;;;;;;;8.38;1.75;;;;;;;14.16;87.90;100764.63;6065261;19;20147;-74
2023/09/19 00:35:30;;;;;;;8.48;2.05;;;;;;;14.14;89.65;100769.16;6066494;19;20034;-72
2023/09/19 00:37:39;;;;;;;6.78;2.10;;;;;;;14.03;88.92;100775.06;6058385;19;20267;-73
2023/09/19 00:39:46;;;;;;;5.80;2.00;;;;;;;13.96;89.69;100773.69;6069580;19;20021;-73
2023/09/19 00:41:51;;;;;;;6.90;2.00;;;;;;;13.93;89.14;100775.63;6066359;19;20767;-72
2023/09/19 00:43:59;;;;;;;8.20;2.10;;;;;;;14.02;89.09;100781.25;6078934;19;20217;-73
2023/09/19 00:46:07;;;;;;;6.00;2.28;;;;;;;13.94;90.37;100775.56;6077057;19;20023;-72
2023/09/19 00:48:10;;;;;;;2.85;1.88;;;;;;;13.90;91.39;100774.03;6072955;19;20809;-73
2023/09/19 00:50:19;;;;;;;8.38;2.05;;;;;;;13.92;90.32;100777.44;6051644;19;20652;-72
2023/09/19 00:52:24;;;;;;;7.80;2.28;;;;;;;13.91;91.58;100781.00;6076259;19;20007;-72
2023/09/19 00:54:35;;;;;;;6.10;1.83;;;;;;;13.92;91.31;100774.78;6073691;19;20011;-72
2023/09/19 00:56:41;;;;;;;5.07;2.10;;;;;;;13.97;90.36;100785.09;6070757;19;20323;-72
2023/09/19 00:58:43;;;;;;;8.57;1.98;;;;;;;13.94;90.45;100778.19;6074066;19;20014;-73
2023/09/19 01:00:50;;;;;;;8.23;2.50;;;;;;;13.97;90.01;100783.31;6075361;19;20299;-74
2023/09/19 01:02:57;;;;;;;8.18;2.30;;;;;;;13.99;90.95;100784.09;6075137;19;20284;-72
2023/09/19 01:05:04;;;;;;;10.85;2.63;;;;;;;13.94;91.47;100780.84;6073858;19;20449;-73
2023/09/19 01:07:10;;;;;;;7.93;2.00;;;;;;;13.98;91.78;100787.66;6073045;19;20518;-74
2023/09/19 01:09:16;;;;;;;6.20;2.08;;;;;;;14.08;90.46;100785.34;6077755;19;20114;-72
2023/09/19 01:11:32;;;;;;;8.90;2.58;;;;;;;14.07;90.31;100796.88;6071634;19;20180;-73
2023/09/19 01:13:50;;;;;;;6.35;2.65;;;;;;;14.07;91.18;100796.03;6063720;19;20283;-72
2023/09/19 01:16:07;;;;;;;8.90;2.30;;;;;;;14.15;90.27;100785.88;6076068;19;20018;-72
2023/09/19 01:18:24;;;;;;;7.80;2.33;;;;;;;14.07;90.77;100788.09;6069585;19;20570;-72
2023/09/19 01:20:37;;;;;;;7.07;2.08;;;;;;;14.05;92.07;100788.16;6073566;19;20183;-73
2023/09/19 01:22:57;;;;;;;8.43;2.50;;;;;;;14.13;90.53;100791.22;6071611;19;20306;-73
2023/09/19 01:25:30;;;;;;;12.98;3.22;;;;;;;14.14;91.14;100781.50;6068406;19;20512;-73
2023/09/19 01:28:04;;;;;;;8.30;2.85;;;;;;;14.17;91.31;100779.56;6070995;19;20040;-74
2023/09/19 01:30:22;;;;;;;12.20;2.20;;;;;;;14.25;92.57;100785.25;6075864;19;20018;-73
2023/09/19 01:32:32;;;;;;;5.72;2.00;;;;;;;14.24;93.79;100795.91;6081121;19;20018;-72
2023/09/19 01:34:49;;;;;;;7.63;2.20;;;;;;;14.17;95.67;100806.00;6080278;19;20015;-73
2023/09/19 01:36:55;;;;;;;9.68;2.67;;;;;;;14.16;97.05;100788.41;6081277;19;20015;-73
2023/09/19 01:39:05;;;;;;;8.30;2.63;;;;;;;14.19;96.33;100798.84;6080501;19;20031;-74
2023/09/19 01:41:12;;;;;;;6.88;2.30;;;;;;;14.24;95.21;100801.19;6079295;19;20007;-73
2023/09/19 01:43:26;;;;;;;7.72;2.20;;;;;;;14.22;95.22;100789.88;6083879;19;20574;-72
2023/09/19 01:45:38;;;;;;;11.32;2.50;;;;;;;14.25;94.13;100792.34;6076815;19;20007;-73
2023/09/19 01:47:51;;;;;;;6.90;2.05;;;;;;;14.23;93.68;100791.56;6070007;19;20531;-72
2023/09/19 01:50:05;;;;;;;6.60;2.83;;;;;;;14.27;91.84;100787.84;6078836;19;20264;-73
2023/09/19 01:52:16;;;;;;;5.68;2.25;;;;;;;14.21;92.39;100794.28;6077941;19;20291;-73
2023/09/19 01:54:31;;;;;;;7.88;2.30;;;;;;;14.27;90.71;100790.47;6074601;19;20047;-72
2023/09/19 01:56:42;;;;;;;6.55;2.13;;;;;;;14.23;91.21;100794.22;6077574;19;20015;-74
2023/09/19 01:58:51;;;;;;;8.15;1.95;;;;;;;14.19;90.89;100800.59;6074109;19;20109;-72
2023/09/19 02:01:04;;;;;;;8.13;2.40;;;;;;;14.21;90.08;100793.44;6072309;19;20691;-72
2023/09/19 02:03:12;;;;;;;8.98;2.13;;;;;;;14.15;90.76;100799.94;6074826;19;20536;-72
2023/09/19 02:05:25;;;;;;;5.50;2.72;;;;;;;14.13;90.37;100796.50;6074785;19;20030;-73
2023/09/19 02:07:28;;;;;;;;;;;;;;;14.17;89.34;100802.50;6074051;19;20038;-72
2023/09/19 02:09:38;;;;;;;6.55;2.10;;;;;;;14.08;89.92;100797.72;6073619;19;19933;-72
2023/09/19 02:11:43;;;;;;;10.55;2.20;;;;;;;14.14;89.13;100800.88;6078973;19;20010;-74
2023/09/19 02:13:48;;;;;;;7.18;2.42;;;;;;;14.12;89.63;100796.63;6076456;19;20003;-74
2023/09/19 02:15:51;;;;;;;5.43;2.00;;;;;;;14.10;89.21;100794.03;6077125;19;20020;-73
2023/09/19 02:17:59;;;;;;;7.15;1.88;;;;;;;14.09;89.94;100791.50;6075768;19;20464;-72
2023/09/19 02:20:03;;;;;;;7.72;2.97;;;;;;;14.05;90.61;100799.59;6075637;19;20014;-72
2023/09/19 02:22:10;;;;;;;8.57;2.28;;;;;;;14.07;90.72;100801.31;6073481;19;20499;-72
2023/09/19 02:24:19;;;;;;;7.55;2.35;;;;;;;14.04;91.11;100797.03;6048773;19;20369;-73
2023/09/19 02:26:24;;;;;;;5.50;1.83;;;;;;;14.07;91.29;100804.78;6073012;19;20527;-74
2023/09/19 02:28:31;;;;;;;4.63;1.73;;;;;;;13.96;92.04;100800.09;6073522;19;20014;-73
2023/09/19 02:30:37;;;;;;;4.45;1.95;;;;;;;13.98;91.56;100803.53;6073967;19;20014;-74
2023/09/19 02:32:44;;;;;;;7.20;2.20;;;;;;;14.02;91.41;100804.19;6073517;19;20327;-73
2023/09/19 02:34:53;;;;;;;5.38;2.25;;;;;;;14.10;91.57;100809.06;6076434;19;20506;-73
2023/09/19 02:37:01;;;;;;;9.90;1.85;;;;;;;14.12;90.98;100809.84;6076931;19;20478;-72
2023/09/19 02:39:05;;;;;;;9.15;1.90;;;;;;;14.05;91.52;100812.78;6068004;19;20015;-72
2023/09/19 02:41:10;;;;;;;4.95;1.70;;;;;;;14.13;91.08;100809.72;6073412;19;20027;-73
2023/09/19 02:43:19;;;;;;;8.77;1.88;;;;;;;14.12;91.30;100807.19;6074754;19;20015;-73
2023/09/19 02:45:25;;;;;;;7.75;2.00;;;;;;;14.14;91.31;100800.00;6078298;19;20024;-73
2023/09/19 02:47:31;;;;;;;8.10;2.03;;;;;;;14.19;90.71;100801.47;6081223;19;20435;-71
2023/09/19 02:49:36;;;;;;;7.70;2.13;;;;;;;14.21;90.02;100790.81;6074073;19;20021;-74
2023/09/19 02:51:44;;;;;;;11.98;3.05;;;;;;;14.20;90.36;100791.75;6078421;19;20280;-72
2023/09/19 02:53:47;;;;;;;6.57;1.58;;;;;;;14.23;90.12;100796.84;6076231;19;20014;-73
2023/09/19 02:55:54;;;;;;;11.20;2.00;;;;;;;14.21;90.62;100789.00;6077462;19;20376;-73
2023/09/19 02:58:00;;;;;;;6.38;1.95;;;;;;;14.20;90.37;100787.31;6070026;19;20011;-73
2023/09/19 03:00:05;;;;;;;7.78;2.22;;;;;;;14.21;90.70;100796.94;6077563;19;20178;-73
2023/09/19 03:02:10;;;;;;;10.38;2.17;;;;;;;14.22;90.69;100803.09;6075794;19;20451;-73
2023/09/19 03:04:19;;;;;;;4.88;1.77;;;;;;;14.20;90.82;100805.81;6074068;19;20531;-74
2023/09/19 03:06:24;;;;;;;8.50;1.80;;;;;;;14.26;90.49;100797.53;6071747;19;20105;-72
2023/09/19 03:08:36;;;;;;;4.63;1.42;;;;;;;14.33;90.64;100797.19;6074604;19;20263;-72
2023/09/19 03:10:41;;;;;;;13.23;2.10;;;;;;;14.38;90.13;100796.00;6071616;19;20006;-74
2023/09/19 03:12:46;;;;;;;8.63;1.60;;;;;;;14.47;89.88;100798.09;6067522;19;20052;-73
2023/09/19 03:14:51;;;;;;;8.73;1.92;;;;;;;14.45;90.74;100807.06;6069428;19;20641;-72
2023/09/19 03:16:59;;;;;;;6.95;1.90;;;;;;;14.50;89.58;100812.94;6070142;19;20020;-72
2023/09/19 03:19:10;;;;;;;6.70;1.90;;;;;;;14.55;89.54;100808.25;6081613;19;20050;-71
2023/09/19 03:21:16;;;;;;;4.70;1.80;;;;;;;14.53;87.82;100796.06;6077221;19;20014;-73
2023/09/19 03:23:19;;;;;;;10.27;2.20;;;;;;;14.62;87.76;100798.19;6076959;19;20256;-73
2023/09/19 03:25:29;;;;;;;4.85;1.63;;;;;;;14.66;87.09;100803.19;6075602;19;20010;-74
2023/09/19 03:27:34;;;;;;;5.35;1.80;;;;;;;14.63;86.69;100799.91;6068666;19;20014;-73
2023/09/19 03:29:39;;;;;;;8.20;2.28;;;;;;;14.61;87.25;100796.47;6074635;19;20012;-72
2023/09/19 03:31:45;;;;;;;7.65;2.00;;;;;;;14.53;87.99;100801.34;6071011;19;20015;-72
2023/09/19 03:33:50;;;;;;;7.05;1.85;;;;;;;14.47;88.19;100792.81;6073062;19;20328;-73
2023/09/19 03:35:58;;;;;;;6.30;1.48;;;;;;;14.45;90.00;100801.78;6075848;19;20470;-73
2023/09/19 03:38:03;;;;;;;5.10;1.88;;;;;;;14.42;92.68;100791.38;6079849;19;20014;-72
2023/09/19 03:40:10;;;;;;;13.40;2.38;;;;;;;14.36;94.42;100791.72;6084936;19;20015;-73
2023/09/19 03:42:25;;;;;;;7.05;2.10;;;;;;;14.31;95.30;100796.44;6076053;19;20015;-73
2023/09/19 03:44:30;;;;;;;15.50;2.47;;;;;;;14.22;96.14;100811.88;6074388;19;20055;-73
2023/09/19 03:46:36;;;;;;;9.52;2.17;;;;;;;14.27;96.83;100819.56;6077640;19;20320;-73
2023/09/19 03:48:41;;;;;;;6.78;1.83;;;;;;;14.20;97.14;100804.97;6077093;19;20237;-72
2023/09/19 03:50:49;;;;;;;5.45;2.08;;;;;;;14.12;97.56;100821.25;6076558;19;20014;-72
2023/09/19 03:52:59;;;;;;;9.05;2.25;;;;;;;14.23;97.24;100813.56;6075793;19;20217;-72
2023/09/19 03:55:09;;;;;;;8.10;2.17;;;;;;;14.25;97.43;100821.41;6072168;19;20007;-71
2023/09/19 03:57:17;;;;;;;12.68;2.95;;;;;;;14.28;97.00;100822.09;6071819;19;20177;-73
2023/09/19 03:59:29;;;;;;;8.48;2.90;;;;;;;14.31;96.62;100825.50;6070626;19;20024;-72
2023/09/19 04:01:34;;;;;;;10.40;2.45;;;;;;;14.34;96.41;100826.19;6070249;19;20479;-71
2023/09/19 04:03:46;;;;;;;5.93;1.80;;;;;;;14.30;96.95;100834.34;6071820;19;20749;-72
2023/09/19 04:05:51;;;;;;;9.30;2.10;;;;;;;14.21;97.42;100830.44;6070506;19;20493;-73
2023/09/19 04:07:59;;;;;;;10.50;3.00;;;;;;;14.22;98.13;100835.66;6073761;19;20047;-72
2023/09/19 04:10:04;;;;;;;6.22;1.98;;;;;;;14.20;97.81;100836.69;6076096;19;20014;-74
2023/09/19 04:12:10;;;;;;;10.43;2.63;;;;;;;14.27;97.73;100844.19;6079383;19;20368;-73
2023/09/19 04:14:15;;;;;;;9.50;2.00;;;;;;;14.21;97.82;100846.31;6076231;19;20035;-72
2023/09/19 04:16:25;;;;;;;10.45;2.40;;;;;;;14.18;98.31;100839.41;6073243;19;20572;-73
2023/09/19 04:18:32;;;;;;;10.70;2.40;;;;;;;14.16;98.68;100843.91;6076612;19;20634;-73
2023/09/19 04:20:37;;;;;;;9.63;2.35;;;;;;;14.17;99.26;100842.16;6082355;19;20545;-74
2023/09/19 04:22:43;;;;;;;12.80;2.75;;;;;;;14.19;98.65;100850.81;6080906;19;20007;-71
2023/09/19 04:24:48;;;;;;;10.52;2.17;;;;;;;14.19;99.20;100842.88;6081089;19;20043;-72
2023/09/19 04:26:53;;;;;;;8.60;2.17;;;;;;;14.20;98.86;100844.59;6080137;19;20010;-72
2023/09/19 04:29:01;;;;;;;9.25;2.28;;;;;;;14.20;98.92;100841.97;6078663;19;20736;-72
2023/09/19 04:31:07;;;;;;;9.82;2.33;;;;;;;14.24;98.63;100846.13;6082338;19;20043;-72
2023/09/19 04:33:17;;;;;;;10.15;2.85;;;;;;;14.21;98.91;100843.66;6082058;19;20039;-71
2023/09/19 04:35:23;;;;;;;8.13;2.75;;;;;;;14.23;98.89;100842.63;6082008;19;20041;-72
2023/09/19 04:37:28;;;;;;;8.20;2.15;;;;;;;14.24;98.60;100846.13;6083377;19;20015;-74
2023/09/19 04:39:34;;;;;;;10.88;1.90;;;;;;;14.33;97.75;100844.78;6079505;19;20414;-73
2023/09/19 04:41:41;;;;;;;7.82;1.85;;;;;;;14.29;97.62;100852.00;6080907;19;20017;-71
2023/09/19 04:43:46;;;;;;;8.57;2.47;;;;;;;14.29;98.01;100854.66;6075681;19;20007;-73
2023/09/19 04:45:56;;;;;;;5.95;2.25;;;;;;;14.30;97.84;100855.50;6084381;19;20185;-73
2023/09/19 04:47:58;;;;;;;9.55;2.80;;;;;;;14.35;97.45;100859.63;6080582;19;20019;-71
2023/09/19 04:50:13;;;;;;;6.18;2.42;;;;;;;14.36;97.71;100857.81;6076191;19;20075;-72
2023/09/19 04:52:20;;;;;;;10.05;2.50;;;;;;;14.32;97.86;100849.19;6082973;19;20010;-72
2023/09/19 04:54:27;;;;;;;7.63;2.08;;;;;;;14.24;98.33;100852.28;6070569;19;20252;-73
2023/09/19 04:56:32;;;;;;;12.20;2.40;;;;;;;14.30;98.83;100855.50;6075854;19;20011;-72
2023/09/19 04:58:37;;;;;;;8.30;3.10;;;;;;;14.25;99.62;100861.06;6072223;19;20010;-73
2023/09/19 05:00:42;;;;;;;7.88;2.78;;;;;;;14.22;99.86;100850.66;6068688;19;20043;-73
2023/09/19 05:02:45;;;;;;;6.85;2.45;;;;;;;14.25;99.64;100859.28;6077156;19;20018;-73
2023/09/19 05:04:50;;;;;;;8.80;2.58;;;;;;;14.24;99.76;100857.56;6074589;19;20444;-73
2023/09/19 05:07:00;;;;;;;7.65;2.17;;;;;;;14.29;99.62;100865.22;6082423;19;20032;-73
2023/09/19 05:09:06;;;;;;;9.82;2.38;;;;;;;14.29;99.33;100859.94;6077914;19;20304;-74
2023/09/19 05:11:11;;;;;;;13.25;2.33;;;;;;;14.26;99.31;100853.03;6085593;19;20062;-73
2023/09/19 05:13:16;;;;;;;15.52;2.40;;;;;;;14.30;98.91;100860.78;6084380;19;20006;-72
2023/09/19 05:15:22;;;;;;;9.35;2.67;;;;;;;14.27;98.88;100853.91;6083462;19;20775;-73
2023/09/19 05:17:27;;;;;;;6.53;2.47;;;;;;;14.32;98.38;100861.56;6082443;19;20303;-72
2023/09/19 05:19:32;;;;;;;7.43;2.50;;;;;;;14.26;99.02;100850.38;6082430;19;20762;-72
2023/09/19 05:21:38;;;;;;;5.65;2.00;;;;;;;14.21;99.75;100856.88;6085997;19;20033;-74
2023/09/19 05:23:47;;;;;;;10.15;2.97;;;;;;;14.25;99.25;100853.97;6086827;19;20035;-74
2023/09/19 05:25:52;;;;;;;10.00;3.15;;;;;;;14.26;98.79;100849.53;6090720;19;20043;-72
2023/09/19 05:28:03;;;;;;;7.13;2.00;;;;;;;14.25;99.52;100863.72;6086768;19;20010;-72
2023/09/19 05:30:09;;;;;;;9.98;2.05;;;;;;;14.29;98.49;100852.00;6086676;19;20377;-72
2023/09/19 05:32:15;;;;;;;8.82;2.60;;;;;;;14.22;99.32;100840.09;6083189;19;20042;-72
2023/09/19 05:34:20;;;;;;;6.60;2.20;;;;;;;14.22;99.02;100853.31;6083634;19;20023;-72
2023/09/19 05:36:25;;;;;;;9.25;2.63;;;;;;;14.24;99.31;100840.84;6087077;19;20027;-73
2023/09/19 05:38:30;;;;;;;8.93;2.35;;;;;;;14.20;99.97;100849.91;6086466;19;20023;-73
2023/09/19 05:40:38;;;;;;;8.70;2.30;;;;;;;14.20;99.18;100849.91;6088175;19;20535;-73
2023/09/19 05:42:43;;;;;;;10.80;2.70;;;;;;;14.24;100.00;100856.69;6082783;19;20018;-73
2023/09/19 05:44:48;;;;;;;7.72;2.40;;;;;;;14.24;100.00;100852.28;6086326;19;20018;-73
2023/09/19 05:46:56;;;;;;;15.57;2.90;;;;;;;14.26;100.00;100857.47;6087938;19;20117;-77
2023/09/19 05:49:03;;;;;;;8.43;2.47;;;;;;;14.26;100.00;100860.97;6084464;19;20346;-74
2023/09/19 05:51:07;;;;;;;7.72;2.00;;;;;;;14.24;100.00;100875.19;6083203;19;20015;-74
2023/09/19 05:53:14;;;;;;;9.40;2.28;;;;;;;14.24;100.00;100873.44;6076721;19;20181;-73
2023/09/19 05:55:20;;;;;;;10.02;2.38;;;;;;;14.30;100.00;100866.06;6085241;19;20087;-73
2023/09/19 05:57:28;;;;;;;8.45;2.53;;;;;;;14.31;100.00;100879.22;6083413;19;20051;-73
2023/09/19 05:59:34;;;;;;;10.13;2.63;;;;;;;14.33;100.00;100872.06;6079557;19;20006;-73
2023/09/19 06:01:38;;;;;;;7.68;2.20;;;;;;;14.41;100.00;100882.22;6086298;19;20347;-73
2023/09/19 06:03:44;;;;;;;12.35;2.47;;;;;;;14.40;100.00;100884.00;6086390;19;20014;-73
2023/09/19 06:05:49;;;;;;;5.32;2.03;;;;;;;14.40;100.00;100875.19;6080553;19;20301;-73
2023/09/19 06:08:07;;;;;;;9.13;2.17;;;;;;;14.47;100.00;100872.13;6080858;19;20006;-73
2023/09/19 06:10:10;;;;;;;7.03;2.05;;;;;;;14.50;100.00;100885.16;6081696;19;20043;-74
2023/09/19 06:12:17;;;;;;;18.48;3.13;;;;;;;14.50;100.00;100893.09;6084904;19;20217;-74
2023/09/19 06:14:24;;;;;;;11.27;2.17;;;;;;;14.49;100.00;100888.78;6085024;19;20039;-72
2023/09/19 06:16:26;;;;;;;6.90;2.30;;;;;;;14.49;100.00;100880.84;6083373;19;20454;-74
2023/09/19 06:18:33;;;;;;;11.88;2.40;;;;;;;14.52;100.00;100889.53;6086029;19;20063;-74
2023/09/19 06:20:44;;;;;;;11.73;2.63;;;;;;;14.52;100.00;100878.97;6084582;19;20464;-75
2023/09/19 06:22:49;;;;;;;13.75;2.63;;;;;;;14.50;100.00;100892.25;6080981;19;20027;-75
2023/09/19 06:24:53;;;;;;;10.65;3.05;;;;;;;14.50;100.00;100879.03;6079303;19;20011;-75
2023/09/19 06:27:01;;;;;;;9.90;2.92;;;;;;;14.53;100.00;100891.28;6082660;19;20621;-74
2023/09/19 06:29:07;;;;;;;10.85;3.03;;;;;;;14.57;100.00;100887.53;6082720;19;20482;-74
2023/09/19 06:31:15;;;;;;;7.45;2.70;;;;;;;14.58;100.00;100887.41;6084266;19;20011;-75
2023/09/19 06:33:20;;;;;;;10.75;2.80;;;;;;;14.58;100.00;100894.50;6086539;19;20021;-74
2023/09/19 06:35:26;;;;;;;8.75;2.70;;;;;;;14.59;100.00;100893.59;6084407;19;20010;-74
2023/09/19 06:37:31;;;;;;;9.95;2.47;;;;;;;14.63;100.00;100901.25;6078561;19;20344;-73
2023/09/19 06:39:37;;;;;;;10.57;2.47;;;;;;;14.67;100.00;100897.50;6080083;19;20018;-75
2023/09/19 06:41:46;;;;;;;9.32;2.78;;;;;;;14.67;100.00;100896.66;6079191;19;20028;-74
2023/09/19 06:43:52;;;;;;;11.73;2.85;;;;;;;14.66;100.00;100900.22;6080492;19;20034;-75
2023/09/19 06:46:00;;;;;;;7.30;2.10;;;;;;;14.67;100.00;100900.13;6082663;19;20018;-73
2023/09/19 06:48:10;;;;;;;9.93;2.47;;;;;;;14.70;100.00;100893.81;6083959;19;20018;-76
2023/09/19 06:50:18;;;;;;;13.23;3.80;;;;;;;14.73;100.00;100906.03;6082699;19;20061;-73
2023/09/19 06:52:22;;;;;;;9.10;2.92;;;;;;;14.75;100.00;100899.72;6080932;19;21556;-75
2023/09/19 06:54:31;;;;;;;12.18;2.72;;;;;;;14.78;100.00;100906.63;6082292;19;20519;-74
2023/09/19 06:56:36;;;;;;;11.05;2.67;;;;;;;14.78;100.00;100899.53;6080884;19;20006;-74
2023/09/19 06:58:45;;;;;;;7.13;2.60;;;;;;;14.82;100.00;100894.91;6083097;19;20554;-74
2023/09/19 07:00:50;;;;;;;12.40;2.95;;;;;;;14.87;100.00;100890.19;6078672;19;20705;-75
2023/09/19 07:03:00;;;;;;;9.88;2.53;;;;;;;14.89;100.00;100896.25;6077307;19;20442;-72
2023/09/19 07:05:10;;;;;;;13.90;2.97;;;;;;;14.93;99.75;100890.72;6072185;19;20399;-75
2023/09/19 07:07:17;;;;;;;11.27;2.95;;;;;;;14.98;99.46;100898.41;6084097;19;20017;-75
2023/09/19 07:09:22;;;;;;;10.45;2.50;;;;;;;15.08;98.64;100899.53;6081545;19;20573;-74
2023/09/19 07:11:27;;;;;;;15.60;3.05;;;;;;;15.17;98.62;100903.47;6078879;19;20062;-75
2023/09/19 07:13:35;;;;;;;7.32;2.45;;;;;;;15.21;98.51;100902.31;6078571;19;20536;-74
2023/09/19 07:15:46;;;;;;;7.88;2.90;;;;;;;15.25;98.56;100903.00;6081454;19;20187;-74
2023/09/19 07:17:51;;;;;;;15.27;2.97;;;;;;;15.33;98.54;100903.41;6083740;19;20011;-73
2023/09/19 07:20:00;;;;;;;8.75;2.70;;;;;;;15.30;97.95;100895.66;6080117;19;20017;-76
2023/09/19 07:22:07;;;;;;;10.88;2.30;;;;;;;15.36;98.44;100901.41;6083661;19;20032;-73
2023/09/19 07:24:13;;;;;;;13.50;3.13;;;;;;;15.29;97.69;100899.22;6083533;19;20274;-73
2023/09/19 07:26:18;;;;;;;12.35;2.75;;;;;;;15.45;98.14;100904.47;6052515;19;20021;-73
2023/09/19 07:28:24;;;;;;;12.00;2.65;;;;;;;15.61;96.96;100904.38;6080057;19;20018;-73
2023/09/19 07:30:29;;;;;;;13.07;2.67;;;;;;;15.65;96.18;100916.50;6078301;19;20380;-73
2023/09/19 07:32:34;;;;;;;14.23;3.05;;;;;;;15.82;96.63;100911.06;6078332;19;20488;-73
2023/09/19 07:34:40;;;;;;;11.77;2.70;;;;;;;15.69;95.16;100910.09;6077486;19;20078;-73
2023/09/19 07:36:47;;;;;;;13.88;3.08;;;;;;;15.74;96.34;100887.69;6080504;19;20333;-74
2023/09/19 07:38:54;;;;;;;10.10;2.60;;;;;;;15.67;96.53;100909.34;6078501;19;20515;-74
2023/09/19 07:41:22;;;;;;;9.52;3.53;;;;;;;15.55;96.07;100902.97;6079990;19;20010;-74
2023/09/19 07:43:27;;;;;;;19.10;3.13;;;;;;;15.74;96.25;100913.31;6075204;19;20466;-73
2023/09/19 07:45:33;;;;;;;10.82;2.85;;;;;;;15.63;94.99;100921.03;6073128;19;20010;-76
2023/09/19 07:47:38;;;;;;;11.45;3.05;;;;;;;15.84;95.15;100922.41;6081673;19;20486;-73
2023/09/19 07:49:42;;;;;;;11.48;2.85;;;;;;;15.84;94.59;100913.63;6088347;19;20468;-74
2023/09/19 07:51:48;;;;;;;13.93;2.78;;;;;;;15.96;94.43;100915.53;6089388;19;20029;-74
2023/09/19 07:53:56;;;;;;;8.63;2.80;;;;;;;16.16;93.76;100911.63;6065083;19;20369;-73
2023/09/19 07:56:05;;;;;;;15.38;2.78;;;;;;;16.24;92.62;100907.56;6086293;19;20040;-73
2023/09/19 07:58:11;;;;;;;9.75;2.25;;;;;;;16.30;92.57;100906.31;6083089;19;20026;-73
2023/09/19 08:00:17;;;;;;;17.10;2.85;;;;;;;16.42;91.69;100908.16;6082789;19;20463;-73
2023/09/19 08:02:22;;;;;;;11.80;2.60;;;;;;;16.39;92.01;100905.72;6084632;19;20261;-74
2023/09/19 08:04:30;;;;;;;11.90;3.75;;;;;;;16.45;90.28;100892.06;6083454;19;20018;-73
2023/09/19 08:06:36;;;;;;;16.63;2.83;;;;;;;16.54;89.73;100905.69;6085620;19;20015;-74
2023/09/19 08:08:43;;;;;;;10.52;3.00;;;;;;;16.62;89.62;100904.25;6088471;19;20483;-74
2023/09/19 08:10:57;;;;;;;10.10;2.90;;;;;;;16.48;90.62;100896.31;6080294;19;20046;-74
2023/09/19 08:13:02;;;;;;;8.13;3.00;;;;;;;16.56;90.55;100888.72;6082099;19;20209;-74
2023/09/19 08:15:09;;;;;;;10.65;2.90;;;;;;;16.61;91.07;100891.94;6084384;19;20330;-74
2023/09/19 08:17:14;;;;;;;10.80;2.65;;;;;;;16.70;91.80;100889.63;6084502;19;20010;-75
2023/09/19 08:19:23;;;;;;;8.73;2.55;;;;;;;16.58;90.86;100892.13;6079789;19;20016;-74
2023/09/19 08:21:29;;;;;;;13.00;3.53;;;;;;;17.02;89.87;100882.22;6085449;19;20323;-74
2023/09/19 08:23:34;;;;;;;8.18;2.22;;;;;;;16.89;88.74;100883.03;6071325;19;20036;-74
2023/09/19 08:25:40;;;;;;;11.07;2.92;;;;;;;16.94;87.56;100882.72;6084976;19;20551;-74
2023/09/19 08:27:51;;;;;;;9.02;2.28;;;;;;;16.94;88.11;100893.34;6084857;19;20015;-75
2023/09/19 08:29:59;;;;;;;8.77;2.45;;;;;;;16.87;87.90;100897.34;6086385;19;20120;-75
2023/09/19 08:32:07;;;;;;;9.90;2.10;;;;;;;17.47;87.06;100890.69;6086829;19;20013;-75
2023/09/19 08:34:13;;;;;;;10.43;3.17;;;;;;;17.18;87.79;100892.66;6084403;19;20018;-74
2023/09/19 08:36:18;;;;;;;11.02;2.67;;;;;;;16.98;86.85;100889.56;6086463;19;20283;-76
2023/09/19 08:38:23;;;;;;;9.68;2.58;;;;;;;16.66;88.61;100900.41;6089151;19;20192;-75
2023/09/19 08:40:29;;;;;;;12.90;2.92;;;;;;;16.48;88.12;100879.53;6079998;19;20658;-75
2023/09/19 08:42:53;;;;;;;11.30;2.78;;;;;;;16.43;88.93;100890.47;6083948;19;20010;-76
2023/09/19 08:45:02;;;;;;;7.53;2.40;;;;;;;16.47;88.93;100889.31;6086077;19;20035;-73
2023/09/19 08:47:13;;;;;;;9.82;2.88;;;;;;;16.49;88.83;100892.72;6083076;19;20014;-75
2023/09/19 08:49:28;;;;;;;12.05;2.40;;;;;;;16.40;89.11;100886.22;6082616;19;20233;-75
2023/09/19 08:51:44;;;;;;;12.25;2.90;;;;;;;16.43;89.41;100879.88;6082050;19;20043;-75
2023/09/19 08:53:59;;;;;;;12.65;3.75;;;;;;;16.52;89.18;100887.22;6062066;19;20007;-74
2023/09/19 08:56:05;;;;;;;15.05;3.22;;;;;;;16.55;89.64;100891.47;6082744;19;20010;-75
2023/09/19 08:58:16;;;;;;;7.43;2.72;;;;;;;16.54;89.50;100890.63;6089320;19;20367;-75
2023/09/19 09:00:24;;;;;;;8.77;2.50;;;;;;;16.65;89.53;100884.63;6088202;19;20015;-75
2023/09/19 09:02:31;;;;;;;13.60;2.90;;;;;;;17.29;87.10;100895.44;6083852;19;20490;-75
2023/09/19 09:04:37;;;;;;;14.25;2.78;;;;;;;17.33;87.09;100881.84;6090532;19;20358;-74
2023/09/19 09:06:43;;;;;;;9.77;2.50;;;;;;;17.41;87.01;100886.66;6088090;19;20495;-75
2023/09/19 09:08:49;;;;;;;11.65;2.92;;;;;;;17.03;88.66;100891.88;6087015;19;20043;-74
2023/09/19 09:10:55;;;;;;;11.57;3.03;;;;;;;16.91;88.51;100885.59;6087134;19;20829;-74
2023/09/19 09:13:02;;;;;;;15.48;2.92;;;;;;;17.34;88.28;100888.00;6088339;19;20044;-74
2023/09/19 09:15:16;;;;;;;11.32;2.72;;;;;;;17.67;85.21;100891.97;6087677;19;20356;-74
2023/09/19 09:17:22;;;;;;;13.32;3.50;;;;;;;17.81;84.62;100881.25;6088656;19;20014;-74
2023/09/19 09:19:27;;;;;;;12.63;2.88;;;;;;;17.68;85.10;100885.69;6091053;19;20018;-73
2023/09/19 09:21:35;;;;;;;8.48;2.83;;;;;;;17.63;85.62;100877.19;6088066;19;20035;-74
2023/09/19 09:23:40;;;;;;;11.13;2.60;;;;;;;17.59;86.28;100871.25;6085007;19;20288;-74
2023/09/19 09:25:56;;;;;;;7.97;2.88;;;;;;;17.40;85.81;100863.69;6081905;19;20010;-74
2023/09/19 09:28:05;;;;;;;10.00;3.38;;;;;;;17.72;85.38;100881.84;6084108;19;20691;-74
2023/09/19 09:30:36;;;;;;;9.35;2.63;;;;;;;17.51;85.73;100893.03;6083553;19;20015;-74
2023/09/19 09:32:43;;;;;;;13.77;2.80;;;;;;;17.87;84.53;100891.44;6084236;19;20495;-74
2023/09/19 09:35:14;;;;;;;9.63;2.88;;;;;;;18.33;82.04;100882.88;6082621;19;20014;-73
2023/09/19 09:37:20;;;;;;;12.32;3.53;;;;;;;18.13;82.42;100870.16;6082476;19;20694;-75
2023/09/19 09:39:34;;;;;;;12.60;3.08;;;;;;;18.09;83.18;100877.50;6080718;19;20006;-75
2023/09/19 09:41:40;;;;;;;7.30;2.42;;;;;;;17.88;83.02;100874.56;6076518;19;21065;-74
2023/09/19 09:43:48;;;;;;;11.35;2.67;;;;;;;18.09;83.75;100876.63;6077814;19;20629;-75
2023/09/19 09:46:54;;;;;;;10.80;3.28;;;;;;;17.90;83.97;100864.63;6080857;19;20007;-75
2023/09/19 09:48:38;;;;;;;11.68;3.90;;;;;;;17.78;84.18;100884.09;6078768;19;20039;-75
2023/09/19 09:50:56;;;;;;;12.70;3.75;;;;;;;18.04;83.70;100869.00;6080307;19;20260;-77
2023/09/19 09:53:06;;;;;;;11.75;3.28;;;;;;;18.12;82.25;100868.47;6077418;19;20027;-74